sensor_id;sensor_type;location;lat;lon;timestamp;P1;durP1;ratioP1;P2;durP2;ratioP2
72358;SDS011;60317;48.880;-0.862;2023-03-01T00:01:33;2.65;;;2.03;;
72358;SDS011;60317;48.880;-0.862;2023-03-01T00:04:00;2.58;;;2.03;;
72358;SDS011;60317;48.880;-0.862;2023-03-01T00:06:27;2.83;;;2.20;;
72358;SDS011;60317;48.880;-0.862;2023-03-01T00:08:55;3.50;;;1.90;;
72358;SDS011;60317;48.880;-0.862;2023-03-01T00:11:22;2.05;;;1.65;;
72358;SDS011;60317;48.880;-0.862;2023-03-01T00:13:52;2.60;;;1.95;;
72358;SDS011;60317;48.880;-0.862;2023-03-01T00:16:21;2.95;;;2.08;;
72358;SDS011;60317;48.880;-0.862;2023-03-01T00:18:50;2.28;;;1.70;;
72358;SDS011;60317;48.880;-0.862;2023-03-01T00:21:16;3.60;;;2.00;;
72358;SDS011;60317;48.880;-0.862;2023-03-01T00:23:45;2.67;;;1.95;;
72358;SDS011;60317;48.880;-0.862;2023-03-01T00:26:12;2.38;;;1.63;;
72358;SDS011;60317;48.880;-0.862;2023-03-01T00:28:39;2.38;;;1.90;;
72358;SDS011;60317;48.880;-0.862;2023-03-01T00:31:08;2.70;;;1.90;;
72358;SDS011;60317;48.880;-0.862;2023-03-01T00:33:36;2.72;;;2.00;;
72358;SDS011;60317;48.880;-0.862;2023-03-01T00:36:04;2.58;;;1.80;;
72358;SDS011;60317;48.880;-0.862;2023-03-01T00:38:34;3.03;;;1.95;;
72358;SDS011;60317;48.880;-0.862;2023-03-01T00:41:03;2.78;;;1.90;;
72358;SDS011;60317;48.880;-0.862;2023-03-01T00:43:30;2.10;;;1.90;;
72358;SDS011;60317;48.880;-0.862;2023-03-01T00:46:00;2.65;;;1.80;;
72358;SDS011;60317;48.880;-0.862;2023-03-01T00:48:27;2.72;;;1.90;;
72358;SDS011;60317;48.880;-0.862;2023-03-01T00:50:53;2.40;;;1.70;;
72358;SDS011;60317;48.880;-0.862;2023-03-01T00:53:21;2.55;;;1.77;;
72358;SDS011;60317;48.880;-0.862;2023-03-01T00:55:48;2.85;;;2.10;;
72358;SDS011;60317;48.880;-0.862;2023-03-01T00:58:14;2.67;;;1.83;;
72358;SDS011;60317;48.880;-0.862;2023-03-01T01:00:41;2.45;;;1.70;;
72358;SDS011;60317;48.880;-0.862;2023-03-01T01:03:07;1.98;;;1.48;;
72358;SDS011;60317;48.880;-0.862;2023-03-01T01:05:34;2.08;;;1.63;;
72358;SDS011;60317;48.880;-0.862;2023-03-01T01:08:01;1.98;;;1.70;;
72358;SDS011;60317;48.880;-0.862;2023-03-01T01:10:29;1.85;;;1.60;;
72358;SDS011;60317;48.880;-0.862;2023-03-01T01:12:55;2.05;;;1.80;;
72358;SDS011;60317;48.880;-0.862;2023-03-01T01:15:22;2.65;;;1.80;;
72358;SDS011;60317;48.880;-0.862;2023-03-01T01:17:48;2.00;;;1.80;;
72358;SDS011;60317;48.880;-0.862;2023-03-01T01:20:15;1.98;;;1.70;;
72358;SDS011;60317;48.880;-0.862;2023-03-01T01:22:42;2.88;;;2.00;;
72358;SDS011;60317;48.880;-0.862;2023-03-01T01:25:09;2.03;;;1.58;;
72358;SDS011;60317;48.880;-0.862;2023-03-01T01:27:37;1.60;;;1.50;;
72358;SDS011;60317;48.880;-0.862;2023-03-01T01:30:04;1.60;;;1.48;;
72358;SDS011;60317;48.880;-0.862;2023-03-01T01:32:31;2.22;;;1.58;;
72358;SDS011;60317;48.880;-0.862;2023-03-01T01:34:58;2.08;;;1.70;;
72358;SDS011;60317;48.880;-0.862;2023-03-01T01:37:25;2.53;;;1.80;;
72358;SDS011;60317;48.880;-0.862;2023-03-01T01:39:51;2.28;;;1.67;;
72358;SDS011;60317;48.880;-0.862;2023-03-01T01:42:18;2.78;;;1.70;;
72358;SDS011;60317;48.880;-0.862;2023-03-01T01:44:46;3.63;;;1.65;;
72358;SDS011;60317;48.880;-0.862;2023-03-01T01:47:14;2.00;;;1.70;;
72358;SDS011;60317;48.880;-0.862;2023-03-01T01:49:43;1.52;;;1.38;;
72358;SDS011;60317;48.880;-0.862;2023-03-01T01:52:13;2.22;;;1.58;;
72358;SDS011;60317;48.880;-0.862;2023-03-01T01:54:44;2.10;;;1.52;;
72358;SDS011;60317;48.880;-0.862;2023-03-01T01:57:16;2.00;;;1.70;;
72358;SDS011;60317;48.880;-0.862;2023-03-01T01:59:48;1.55;;;1.45;;
72358;SDS011;60317;48.880;-0.862;2023-03-01T02:02:18;2.72;;;1.73;;
72358;SDS011;60317;48.880;-0.862;2023-03-01T02:04:46;2.17;;;1.60;;
72358;SDS011;60317;48.880;-0.862;2023-03-01T02:07:14;1.83;;;1.52;;
72358;SDS011;60317;48.880;-0.862;2023-03-01T02:09:43;2.05;;;1.83;;
72358;SDS011;60317;48.880;-0.862;2023-03-01T02:12:12;2.05;;;1.40;;
72358;SDS011;60317;48.880;-0.862;2023-03-01T02:14:40;1.73;;;1.40;;
72358;SDS011;60317;48.880;-0.862;2023-03-01T02:17:08;1.42;;;1.30;;
72358;SDS011;60317;48.880;-0.862;2023-03-01T02:19:40;2.25;;;1.65;;
72358;SDS011;60317;48.880;-0.862;2023-03-01T02:22:18;1.88;;;1.50;;
72358;SDS011;60317;48.880;-0.862;2023-03-01T02:24:56;2.42;;;1.60;;
72358;SDS011;60317;48.880;-0.862;2023-03-01T02:27:33;1.60;;;1.50;;
72358;SDS011;60317;48.880;-0.862;2023-03-01T02:30:08;2.17;;;1.58;;
72358;SDS011;60317;48.880;-0.862;2023-03-01T02:32:36;2.33;;;1.65;;
72358;SDS011;60317;48.880;-0.862;2023-03-01T02:35:02;2.85;;;1.70;;
72358;SDS011;60317;48.880;-0.862;2023-03-01T02:37:29;2.38;;;1.65;;
72358;SDS011;60317;48.880;-0.862;2023-03-01T02:39:56;2.42;;;1.50;;
72358;SDS011;60317;48.880;-0.862;2023-03-01T02:42:26;2.63;;;1.50;;
72358;SDS011;60317;48.880;-0.862;2023-03-01T02:44:57;2.83;;;1.70;;
72358;SDS011;60317;48.880;-0.862;2023-03-01T02:47:25;3.05;;;1.50;;
72358;SDS011;60317;48.880;-0.862;2023-03-01T02:49:52;2.83;;;1.58;;
72358;SDS011;60317;48.880;-0.862;2023-03-01T02:52:22;2.00;;;1.50;;
72358;SDS011;60317;48.880;-0.862;2023-03-01T02:54:58;1.65;;;1.40;;
72358;SDS011;60317;48.880;-0.862;2023-03-01T02:57:29;2.10;;;1.58;;
72358;SDS011;60317;48.880;-0.862;2023-03-01T02:59:59;1.73;;;1.42;;
72358;SDS011;60317;48.880;-0.862;2023-03-01T03:02:30;1.45;;;1.30;;
72358;SDS011;60317;48.880;-0.862;2023-03-01T03:04:56;1.67;;;1.33;;
72358;SDS011;60317;48.880;-0.862;2023-03-01T03:07:23;3.78;;;1.60;;
72358;SDS011;60317;48.880;-0.862;2023-03-01T03:09:50;2.08;;;1.60;;
72358;SDS011;60317;48.880;-0.862;2023-03-01T03:12:17;3.33;;;1.58;;
72358;SDS011;60317;48.880;-0.862;2023-03-01T03:14:43;2.72;;;1.70;;
72358;SDS011;60317;48.880;-0.862;2023-03-01T03:17:10;2.47;;;1.55;;
72358;SDS011;60317;48.880;-0.862;2023-03-01T03:19:38;2.15;;;1.50;;
72358;SDS011;60317;48.880;-0.862;2023-03-01T03:22:04;1.88;;;1.50;;
72358;SDS011;60317;48.880;-0.862;2023-03-01T03:24:31;1.45;;;1.30;;
72358;SDS011;60317;48.880;-0.862;2023-03-01T03:26:58;1.67;;;1.30;;
72358;SDS011;60317;48.880;-0.862;2023-03-01T03:29:24;1.58;;;1.30;;
72358;SDS011;60317;48.880;-0.862;2023-03-01T03:31:51;1.70;;;1.30;;
72358;SDS011;60317;48.880;-0.862;2023-03-01T03:34:17;2.05;;;1.50;;
72358;SDS011;60317;48.880;-0.862;2023-03-01T03:36:45;1.73;;;1.40;;
72358;SDS011;60317;48.880;-0.862;2023-03-01T03:39:12;2.00;;;1.48;;
72358;SDS011;60317;48.880;-0.862;2023-03-01T03:41:39;1.70;;;1.50;;
72358;SDS011;60317;48.880;-0.862;2023-03-01T03:44:05;1.75;;;1.33;;
72358;SDS011;60317;48.880;-0.862;2023-03-01T03:46:32;2.00;;;1.50;;
72358;SDS011;60317;48.880;-0.862;2023-03-01T03:48:59;2.65;;;1.60;;
72358;SDS011;60317;48.880;-0.862;2023-03-01T03:51:25;1.67;;;1.40;;
72358;SDS011;60317;48.880;-0.862;2023-03-01T03:53:53;2.20;;;1.50;;
72358;SDS011;60317;48.880;-0.862;2023-03-01T03:56:20;2.17;;;1.38;;
72358;SDS011;60317;48.880;-0.862;2023-03-01T03:58:46;2.78;;;1.40;;
72358;SDS011;60317;48.880;-0.862;2023-03-01T04:01:13;2.13;;;1.58;;
72358;SDS011;60317;48.880;-0.862;2023-03-01T04:03:39;2.13;;;1.60;;
72358;SDS011;60317;48.880;-0.862;2023-03-01T04:06:06;1.77;;;1.45;;
72358;SDS011;60317;48.880;-0.862;2023-03-01T04:08:32;1.77;;;1.50;;
72358;SDS011;60317;48.880;-0.862;2023-03-01T04:11:01;2.15;;;1.75;;
72358;SDS011;60317;48.880;-0.862;2023-03-01T04:13:29;2.38;;;1.55;;
72358;SDS011;60317;48.880;-0.862;2023-03-01T04:15:56;2.58;;;1.80;;
72358;SDS011;60317;48.880;-0.862;2023-03-01T04:18:23;2.28;;;1.52;;
72358;SDS011;60317;48.880;-0.862;2023-03-01T04:20:50;1.83;;;1.40;;
72358;SDS011;60317;48.880;-0.862;2023-03-01T04:23:17;3.35;;;1.60;;
72358;SDS011;60317;48.880;-0.862;2023-03-01T04:25:45;2.63;;;1.63;;
72358;SDS011;60317;48.880;-0.862;2023-03-01T04:28:15;3.03;;;1.75;;
72358;SDS011;60317;48.880;-0.862;2023-03-01T04:30:42;2.53;;;1.70;;
72358;SDS011;60317;48.880;-0.862;2023-03-01T04:33:08;2.58;;;1.83;;
72358;SDS011;60317;48.880;-0.862;2023-03-01T04:35:36;2.45;;;1.80;;
72358;SDS011;60317;48.880;-0.862;2023-03-01T04:38:04;1.70;;;1.60;;
72358;SDS011;60317;48.880;-0.862;2023-03-01T04:40:31;3.70;;;1.70;;
72358;SDS011;60317;48.880;-0.862;2023-03-01T04:42:58;1.55;;;1.45;;
72358;SDS011;60317;48.880;-0.862;2023-03-01T04:45:26;1.88;;;1.30;;
72358;SDS011;60317;48.880;-0.862;2023-03-01T04:47:53;2.13;;;1.60;;
72358;SDS011;60317;48.880;-0.862;2023-03-01T04:50:20;2.40;;;1.40;;
72358;SDS011;60317;48.880;-0.862;2023-03-01T04:52:47;2.28;;;1.63;;
72358;SDS011;60317;48.880;-0.862;2023-03-01T04:55:14;2.17;;;1.60;;
72358;SDS011;60317;48.880;-0.862;2023-03-01T04:57:41;2.08;;;1.77;;
72358;SDS011;60317;48.880;-0.862;2023-03-01T05:00:09;2.08;;;1.60;;
72358;SDS011;60317;48.880;-0.862;2023-03-01T05:02:39;2.33;;;1.67;;
72358;SDS011;60317;48.880;-0.862;2023-03-01T05:05:06;2.80;;;1.45;;
72358;SDS011;60317;48.880;-0.862;2023-03-01T05:07:32;3.90;;;1.67;;
72358;SDS011;60317;48.880;-0.862;2023-03-01T05:09:59;2.22;;;1.52;;
72358;SDS011;60317;48.880;-0.862;2023-03-01T05:12:25;1.83;;;1.50;;
72358;SDS011;60317;48.880;-0.862;2023-03-01T05:14:52;3.03;;;1.73;;
72358;SDS011;60317;48.880;-0.862;2023-03-01T05:17:19;2.58;;;1.63;;
72358;SDS011;60317;48.880;-0.862;2023-03-01T05:19:46;2.30;;;1.58;;
72358;SDS011;60317;48.880;-0.862;2023-03-01T05:22:13;2.05;;;1.48;;
72358;SDS011;60317;48.880;-0.862;2023-03-01T05:24:39;2.50;;;1.50;;
72358;SDS011;60317;48.880;-0.862;2023-03-01T05:27:06;2.35;;;1.60;;
72358;SDS011;60317;48.880;-0.862;2023-03-01T05:29:32;1.80;;;1.50;;
72358;SDS011;60317;48.880;-0.862;2023-03-01T05:31:59;1.77;;;1.42;;
72358;SDS011;60317;48.880;-0.862;2023-03-01T05:34:28;2.35;;;1.65;;
72358;SDS011;60317;48.880;-0.862;2023-03-01T05:36:57;1.95;;;1.48;;
72358;SDS011;60317;48.880;-0.862;2023-03-01T05:39:26;2.65;;;1.70;;
72358;SDS011;60317;48.880;-0.862;2023-03-01T05:41:54;1.73;;;1.55;;
72358;SDS011;60317;48.880;-0.862;2023-03-01T05:44:22;2.10;;;1.70;;
72358;SDS011;60317;48.880;-0.862;2023-03-01T05:46:49;3.15;;;1.50;;
72358;SDS011;60317;48.880;-0.862;2023-03-01T05:49:16;2.50;;;1.52;;
72358;SDS011;60317;48.880;-0.862;2023-03-01T05:51:43;2.35;;;1.60;;
72358;SDS011;60317;48.880;-0.862;2023-03-01T05:54:15;1.73;;;1.52;;
72358;SDS011;60317;48.880;-0.862;2023-03-01T05:56:41;1.95;;;1.48;;
72358;SDS011;60317;48.880;-0.862;2023-03-01T05:59:08;1.85;;;1.35;;
72358;SDS011;60317;48.880;-0.862;2023-03-01T06:01:35;2.03;;;1.58;;
72358;SDS011;60317;48.880;-0.862;2023-03-01T06:04:02;1.50;;;1.40;;
72358;SDS011;60317;48.880;-0.862;2023-03-01T06:06:29;2.15;;;1.48;;
72358;SDS011;60317;48.880;-0.862;2023-03-01T06:09:00;1.75;;;1.40;;
72358;SDS011;60317;48.880;-0.862;2023-03-01T06:11:28;7.30;;;1.98;;
72358;SDS011;60317;48.880;-0.862;2023-03-01T06:13:54;23.90;;;3.40;;
72358;SDS011;60317;48.880;-0.862;2023-03-01T06:16:21;19.95;;;2.97;;
72358;SDS011;60317;48.880;-0.862;2023-03-01T06:18:47;11.18;;;2.60;;
72358;SDS011;60317;48.880;-0.862;2023-03-01T06:21:14;14.98;;;2.53;;
72358;SDS011;60317;48.880;-0.862;2023-03-01T06:23:41;16.73;;;2.95;;
72358;SDS011;60317;48.880;-0.862;2023-03-01T06:26:07;9.30;;;2.22;;
72358;SDS011;60317;48.880;-0.862;2023-03-01T06:28:35;16.27;;;3.00;;
72358;SDS011;60317;48.880;-0.862;2023-03-01T06:31:02;15.25;;;2.40;;
72358;SDS011;60317;48.880;-0.862;2023-03-01T06:33:29;6.03;;;1.95;;
72358;SDS011;60317;48.880;-0.862;2023-03-01T06:35:56;9.43;;;2.15;;
72358;SDS011;60317;48.880;-0.862;2023-03-01T06:38:23;8.85;;;2.42;;
72358;SDS011;60317;48.880;-0.862;2023-03-01T06:40:51;7.72;;;2.28;;
72358;SDS011;60317;48.880;-0.862;2023-03-01T06:43:18;4.88;;;2.20;;
72358;SDS011;60317;48.880;-0.862;2023-03-01T06:45:46;5.47;;;2.40;;
72358;SDS011;60317;48.880;-0.862;2023-03-01T06:48:12;7.05;;;1.92;;
72358;SDS011;60317;48.880;-0.862;2023-03-01T06:50:39;7.60;;;2.13;;
72358;SDS011;60317;48.880;-0.862;2023-03-01T06:53:06;4.80;;;2.15;;
72358;SDS011;60317;48.880;-0.862;2023-03-01T06:55:33;5.65;;;1.98;;
72358;SDS011;60317;48.880;-0.862;2023-03-01T06:58:00;5.10;;;1.77;;
72358;SDS011;60317;48.880;-0.862;2023-03-01T07:00:28;5.40;;;2.03;;
72358;SDS011;60317;48.880;-0.862;2023-03-01T07:02:59;5.07;;;2.03;;
72358;SDS011;60317;48.880;-0.862;2023-03-01T07:05:26;5.07;;;2.00;;
72358;SDS011;60317;48.880;-0.862;2023-03-01T07:07:53;5.80;;;2.03;;
72358;SDS011;60317;48.880;-0.862;2023-03-01T07:10:19;5.30;;;1.77;;
72358;SDS011;60317;48.880;-0.862;2023-03-01T07:12:46;6.13;;;2.05;;
72358;SDS011;60317;48.880;-0.862;2023-03-01T07:15:12;4.93;;;1.90;;
72358;SDS011;60317;48.880;-0.862;2023-03-01T07:17:39;6.97;;;2.05;;
72358;SDS011;60317;48.880;-0.862;2023-03-01T07:20:07;8.82;;;2.03;;
72358;SDS011;60317;48.880;-0.862;2023-03-01T07:22:35;4.95;;;1.90;;
72358;SDS011;60317;48.880;-0.862;2023-03-01T07:25:01;15.93;;;4.10;;
72358;SDS011;60317;48.880;-0.862;2023-03-01T07:27:28;14.27;;;3.58;;
72358;SDS011;60317;48.880;-0.862;2023-03-01T07:29:55;18.05;;;3.30;;
72358;SDS011;60317;48.880;-0.862;2023-03-01T07:32:21;9.13;;;2.70;;
72358;SDS011;60317;48.880;-0.862;2023-03-01T07:34:48;7.03;;;2.58;;
72358;SDS011;60317;48.880;-0.862;2023-03-01T07:37:16;8.02;;;2.97;;
72358;SDS011;60317;48.880;-0.862;2023-03-01T07:39:43;9.88;;;2.38;;
72358;SDS011;60317;48.880;-0.862;2023-03-01T07:42:09;8.35;;;2.50;;
72358;SDS011;60317;48.880;-0.862;2023-03-01T07:44:36;5.85;;;2.20;;
72358;SDS011;60317;48.880;-0.862;2023-03-01T07:47:02;5.03;;;2.70;;
72358;SDS011;60317;48.880;-0.862;2023-03-01T07:49:30;8.40;;;2.28;;
72358;SDS011;60317;48.880;-0.862;2023-03-01T07:51:56;4.50;;;2.20;;
72358;SDS011;60317;48.880;-0.862;2023-03-01T07:54:24;4.15;;;2.28;;
72358;SDS011;60317;48.880;-0.862;2023-03-01T07:56:51;6.28;;;2.17;;
72358;SDS011;60317;48.880;-0.862;2023-03-01T07:59:18;4.55;;;2.22;;
72358;SDS011;60317;48.880;-0.862;2023-03-01T08:01:44;6.85;;;2.35;;
72358;SDS011;60317;48.880;-0.862;2023-03-01T08:04:11;6.10;;;2.30;;
72358;SDS011;60317;48.880;-0.862;2023-03-01T08:06:38;4.68;;;2.45;;
72358;SDS011;60317;48.880;-0.862;2023-03-01T08:09:04;3.95;;;2.33;;
72358;SDS011;60317;48.880;-0.862;2023-03-01T08:11:32;7.38;;;2.70;;
72358;SDS011;60317;48.880;-0.862;2023-03-01T08:13:59;6.28;;;2.40;;
72358;SDS011;60317;48.880;-0.862;2023-03-01T08:16:26;4.28;;;2.10;;
72358;SDS011;60317;48.880;-0.862;2023-03-01T08:18:52;3.30;;;1.92;;
72358;SDS011;60317;48.880;-0.862;2023-03-01T08:21:19;4.68;;;2.22;;
72358;SDS011;60317;48.880;-0.862;2023-03-01T08:23:45;4.75;;;2.40;;
72358;SDS011;60317;48.880;-0.862;2023-03-01T08:26:13;9.02;;;2.10;;
72358;SDS011;60317;48.880;-0.862;2023-03-01T08:28:43;5.97;;;2.50;;
72358;SDS011;60317;48.880;-0.862;2023-03-01T08:31:13;4.55;;;2.15;;
72358;SDS011;60317;48.880;-0.862;2023-03-01T08:33:41;3.45;;;2.20;;
72358;SDS011;60317;48.880;-0.862;2023-03-01T08:36:08;4.00;;;2.10;;
72358;SDS011;60317;48.880;-0.862;2023-03-01T08:38:34;4.05;;;2.13;;
72358;SDS011;60317;48.880;-0.862;2023-03-01T08:41:02;7.13;;;2.05;;
72358;SDS011;60317;48.880;-0.862;2023-03-01T08:43:29;5.70;;;2.20;;
72358;SDS011;60317;48.880;-0.862;2023-03-01T08:45:57;5.43;;;2.33;;
72358;SDS011;60317;48.880;-0.862;2023-03-01T08:48:25;4.65;;;2.40;;
72358;SDS011;60317;48.880;-0.862;2023-03-01T08:50:53;7.25;;;2.40;;
72358;SDS011;60317;48.880;-0.862;2023-03-01T08:53:20;8.45;;;2.20;;
72358;SDS011;60317;48.880;-0.862;2023-03-01T08:55:46;4.10;;;2.05;;
72358;SDS011;60317;48.880;-0.862;2023-03-01T08:58:15;6.40;;;2.30;;
72358;SDS011;60317;48.880;-0.862;2023-03-01T09:00:42;4.55;;;2.30;;
72358;SDS011;60317;48.880;-0.862;2023-03-01T09:03:10;2.97;;;2.05;;
72358;SDS011;60317;48.880;-0.862;2023-03-01T09:05:36;3.33;;;2.20;;
72358;SDS011;60317;48.880;-0.862;2023-03-01T09:08:03;3.97;;;1.95;;
72358;SDS011;60317;48.880;-0.862;2023-03-01T09:10:30;3.85;;;2.00;;
72358;SDS011;60317;48.880;-0.862;2023-03-01T09:12:57;3.20;;;1.90;;
72358;SDS011;60317;48.880;-0.862;2023-03-01T09:15:23;5.70;;;2.25;;
72358;SDS011;60317;48.880;-0.862;2023-03-01T09:17:50;5.78;;;2.03;;
72358;SDS011;60317;48.880;-0.862;2023-03-01T09:20:18;5.80;;;2.15;;
72358;SDS011;60317;48.880;-0.862;2023-03-01T09:22:48;6.18;;;1.90;;
72358;SDS011;60317;48.880;-0.862;2023-03-01T09:25:15;10.10;;;2.55;;
72358;SDS011;60317;48.880;-0.862;2023-03-01T09:27:42;17.35;;;3.28;;
72358;SDS011;60317;48.880;-0.862;2023-03-01T09:30:09;4.72;;;2.30;;
72358;SDS011;60317;48.880;-0.862;2023-03-01T09:32:36;8.90;;;2.40;;
72358;SDS011;60317;48.880;-0.862;2023-03-01T09:35:03;13.27;;;2.45;;
72358;SDS011;60317;48.880;-0.862;2023-03-01T09:37:32;19.30;;;4.63;;
72358;SDS011;60317;48.880;-0.862;2023-03-01T09:40:00;17.88;;;3.83;;
72358;SDS011;60317;48.880;-0.862;2023-03-01T09:42:27;12.57;;;2.88;;
72358;SDS011;60317;48.880;-0.862;2023-03-01T09:44:56;19.23;;;3.53;;
72358;SDS011;60317;48.880;-0.862;2023-03-01T09:47:26;13.60;;;3.05;;
72358;SDS011;60317;48.880;-0.862;2023-03-01T09:49:58;11.05;;;2.58;;
72358;SDS011;60317;48.880;-0.862;2023-03-01T09:52:36;10.30;;;2.25;;
72358;SDS011;60317;48.880;-0.862;2023-03-01T09:55:08;7.55;;;2.20;;
72358;SDS011;60317;48.880;-0.862;2023-03-01T09:57:39;5.15;;;2.15;;
72358;SDS011;60317;48.880;-0.862;2023-03-01T10:00:15;11.27;;;2.85;;
72358;SDS011;60317;48.880;-0.862;2023-03-01T10:02:49;4.57;;;2.30;;
72358;SDS011;60317;48.880;-0.862;2023-03-01T10:05:27;8.05;;;2.25;;
72358;SDS011;60317;48.880;-0.862;2023-03-01T10:08:06;8.20;;;2.50;;
72358;SDS011;60317;48.880;-0.862;2023-03-01T10:10:49;4.10;;;2.20;;
72358;SDS011;60317;48.880;-0.862;2023-03-01T10:13:19;7.75;;;2.53;;
72358;SDS011;60317;48.880;-0.862;2023-03-01T10:15:50;8.07;;;2.00;;
72358;SDS011;60317;48.880;-0.862;2023-03-01T10:18:21;3.95;;;1.75;;
72358;SDS011;60317;48.880;-0.862;2023-03-01T10:20:52;6.70;;;2.08;;
72358;SDS011;60317;48.880;-0.862;2023-03-01T10:23:23;5.05;;;2.03;;
72358;SDS011;60317;48.880;-0.862;2023-03-01T10:25:56;4.10;;;1.98;;
72358;SDS011;60317;48.880;-0.862;2023-03-01T10:28:36;4.22;;;1.83;;
72358;SDS011;60317;48.880;-0.862;2023-03-01T10:31:13;7.20;;;2.30;;
72358;SDS011;60317;48.880;-0.862;2023-03-01T10:33:44;16.50;;;2.60;;
72358;SDS011;60317;48.880;-0.862;2023-03-01T10:36:11;5.85;;;1.80;;
72358;SDS011;60317;48.880;-0.862;2023-03-01T10:38:49;9.43;;;2.05;;
72358;SDS011;60317;48.880;-0.862;2023-03-01T10:41:17;5.85;;;1.83;;
72358;SDS011;60317;48.880;-0.862;2023-03-01T10:43:45;9.15;;;1.70;;
72358;SDS011;60317;48.880;-0.862;2023-03-01T10:49:00;7.05;;;1.80;;
72358;SDS011;60317;48.880;-0.862;2023-03-01T10:51:33;6.97;;;1.70;;
72358;SDS011;60317;48.880;-0.862;2023-03-01T10:54:00;7.95;;;2.20;;
72358;SDS011;60317;48.880;-0.862;2023-03-01T10:56:28;5.22;;;1.73;;
72358;SDS011;60317;48.880;-0.862;2023-03-01T10:58:56;4.72;;;1.80;;
72358;SDS011;60317;48.880;-0.862;2023-03-01T11:01:26;6.20;;;2.10;;
72358;SDS011;60317;48.880;-0.862;2023-03-01T11:04:09;5.18;;;1.95;;
72358;SDS011;60317;48.880;-0.862;2023-03-01T11:06:38;5.25;;;2.10;;
72358;SDS011;60317;48.880;-0.862;2023-03-01T11:09:14;5.20;;;1.50;;
72358;SDS011;60317;48.880;-0.862;2023-03-01T11:11:41;6.78;;;1.80;;
72358;SDS011;60317;48.880;-0.862;2023-03-01T11:14:12;3.78;;;1.50;;
72358;SDS011;60317;48.880;-0.862;2023-03-01T11:16:58;3.47;;;1.63;;
72358;SDS011;60317;48.880;-0.862;2023-03-01T11:19:27;4.50;;;1.52;;
72358;SDS011;60317;48.880;-0.862;2023-03-01T11:21:55;2.30;;;1.42;;
72358;SDS011;60317;48.880;-0.862;2023-03-01T11:24:29;3.70;;;1.63;;
72358;SDS011;60317;48.880;-0.862;2023-03-01T11:27:00;4.85;;;1.50;;
72358;SDS011;60317;48.880;-0.862;2023-03-01T11:29:32;2.28;;;1.67;;
72358;SDS011;60317;48.880;-0.862;2023-03-01T11:32:13;3.75;;;1.50;;
72358;SDS011;60317;48.880;-0.862;2023-03-01T11:34:42;4.70;;;1.67;;
72358;SDS011;60317;48.880;-0.862;2023-03-01T11:37:16;3.25;;;1.63;;
72358;SDS011;60317;48.880;-0.862;2023-03-01T11:39:53;3.03;;;1.83;;
72358;SDS011;60317;48.880;-0.862;2023-03-01T11:42:25;3.53;;;1.58;;
72358;SDS011;60317;48.880;-0.862;2023-03-01T11:45:06;2.97;;;1.50;;
72358;SDS011;60317;48.880;-0.862;2023-03-01T11:47:41;4.70;;;1.45;;
72358;SDS011;60317;48.880;-0.862;2023-03-01T11:50:24;1.75;;;1.15;;
72358;SDS011;60317;48.880;-0.862;2023-03-01T11:52:58;7.53;;;1.50;;
72358;SDS011;60317;48.880;-0.862;2023-03-01T11:55:40;4.47;;;1.38;;
72358;SDS011;60317;48.880;-0.862;2023-03-01T11:58:22;5.22;;;1.70;;
72358;SDS011;60317;48.880;-0.862;2023-03-01T12:01:03;5.97;;;1.50;;
72358;SDS011;60317;48.880;-0.862;2023-03-01T12:03:46;3.70;;;1.50;;
72358;SDS011;60317;48.880;-0.862;2023-03-01T12:08:57;3.67;;;1.30;;
72358;SDS011;60317;48.880;-0.862;2023-03-01T12:11:36;5.97;;;2.10;;
72358;SDS011;60317;48.880;-0.862;2023-03-01T12:14:17;13.35;;;2.40;;
72358;SDS011;60317;48.880;-0.862;2023-03-01T12:17:02;10.93;;;2.17;;
72358;SDS011;60317;48.880;-0.862;2023-03-01T12:19:44;11.25;;;2.97;;
72358;SDS011;60317;48.880;-0.862;2023-03-01T12:22:29;15.23;;;2.47;;
72358;SDS011;60317;48.880;-0.862;2023-03-01T12:25:07;4.55;;;2.08;;
72358;SDS011;60317;48.880;-0.862;2023-03-01T12:27:48;12.27;;;2.67;;
72358;SDS011;60317;48.880;-0.862;2023-03-01T12:33:02;22.10;;;2.75;;
72358;SDS011;60317;48.880;-0.862;2023-03-01T12:35:46;9.25;;;2.53;;
72358;SDS011;60317;48.880;-0.862;2023-03-01T12:38:24;10.10;;;2.67;;
72358;SDS011;60317;48.880;-0.862;2023-03-01T12:41:06;15.20;;;2.65;;
72358;SDS011;60317;48.880;-0.862;2023-03-01T12:44:01;11.90;;;2.60;;
72358;SDS011;60317;48.880;-0.862;2023-03-01T12:46:40;7.82;;;2.92;;
72358;SDS011;60317;48.880;-0.862;2023-03-01T12:49:19;10.27;;;2.67;;
72358;SDS011;60317;48.880;-0.862;2023-03-01T12:51:51;27.30;;;3.63;;
72358;SDS011;60317;48.880;-0.862;2023-03-01T12:54:26;25.35;;;4.03;;
72358;SDS011;60317;48.880;-0.862;2023-03-01T12:56:53;18.08;;;3.15;;
72358;SDS011;60317;48.880;-0.862;2023-03-01T12:59:26;20.38;;;3.35;;
72358;SDS011;60317;48.880;-0.862;2023-03-01T13:02:02;12.30;;;3.45;;
72358;SDS011;60317;48.880;-0.862;2023-03-01T13:04:38;12.27;;;2.90;;
72358;SDS011;60317;48.880;-0.862;2023-03-01T13:07:21;6.63;;;2.78;;
72358;SDS011;60317;48.880;-0.862;2023-03-01T13:09:55;9.27;;;3.00;;
72358;SDS011;60317;48.880;-0.862;2023-03-01T13:15:26;6.25;;;2.55;;
72358;SDS011;60317;48.880;-0.862;2023-03-01T13:17:54;9.77;;;3.22;;
72358;SDS011;60317;48.880;-0.862;2023-03-01T13:20:23;9.40;;;2.67;;
72358;SDS011;60317;48.880;-0.862;2023-03-01T13:23:00;17.35;;;2.90;;
72358;SDS011;60317;48.880;-0.862;2023-03-01T13:25:30;16.20;;;4.15;;
72358;SDS011;60317;48.880;-0.862;2023-03-01T13:31:00;12.00;;;3.35;;
72358;SDS011;60317;48.880;-0.862;2023-03-01T13:39:04;11.73;;;2.60;;
72358;SDS011;60317;48.880;-0.862;2023-03-01T13:41:52;9.48;;;3.08;;
72358;SDS011;60317;48.880;-0.862;2023-03-01T13:44:20;10.07;;;3.42;;
72358;SDS011;60317;48.880;-0.862;2023-03-01T13:46:52;13.82;;;3.70;;
72358;SDS011;60317;48.880;-0.862;2023-03-01T13:49:23;16.40;;;3.28;;
72358;SDS011;60317;48.880;-0.862;2023-03-01T13:52:00;13.00;;;3.72;;
72358;SDS011;60317;48.880;-0.862;2023-03-01T13:54:29;14.05;;;3.70;;
72358;SDS011;60317;48.880;-0.862;2023-03-01T13:56:57;12.70;;;3.03;;
72358;SDS011;60317;48.880;-0.862;2023-03-01T13:59:26;21.70;;;4.00;;
72358;SDS011;60317;48.880;-0.862;2023-03-01T14:01:55;10.48;;;3.40;;
72358;SDS011;60317;48.880;-0.862;2023-03-01T14:04:24;19.48;;;3.33;;
72358;SDS011;60317;48.880;-0.862;2023-03-01T14:06:52;12.75;;;3.28;;
72358;SDS011;60317;48.880;-0.862;2023-03-01T14:09:37;16.35;;;3.63;;
72358;SDS011;60317;48.880;-0.862;2023-03-01T14:12:12;22.70;;;4.03;;
72358;SDS011;60317;48.880;-0.862;2023-03-01T14:14:52;17.23;;;3.90;;
72358;SDS011;60317;48.880;-0.862;2023-03-01T14:17:33;37.30;;;5.55;;
72358;SDS011;60317;48.880;-0.862;2023-03-01T14:20:10;22.52;;;3.50;;
72358;SDS011;60317;48.880;-0.862;2023-03-01T14:22:40;21.52;;;3.55;;
72358;SDS011;60317;48.880;-0.862;2023-03-01T14:25:17;12.88;;;2.92;;
72358;SDS011;60317;48.880;-0.862;2023-03-01T14:27:51;15.02;;;3.03;;
72358;SDS011;60317;48.880;-0.862;2023-03-01T14:30:21;15.90;;;3.72;;
72358;SDS011;60317;48.880;-0.862;2023-03-01T14:32:53;15.48;;;4.45;;
72358;SDS011;60317;48.880;-0.862;2023-03-01T14:35:23;15.57;;;3.90;;
72358;SDS011;60317;48.880;-0.862;2023-03-01T14:37:51;12.25;;;4.07;;
72358;SDS011;60317;48.880;-0.862;2023-03-01T14:40:21;10.40;;;3.58;;
72358;SDS011;60317;48.880;-0.862;2023-03-01T14:42:50;14.77;;;3.13;;
72358;SDS011;60317;48.880;-0.862;2023-03-01T14:45:18;15.45;;;3.58;;
72358;SDS011;60317;48.880;-0.862;2023-03-01T14:47:45;11.48;;;3.17;;
72358;SDS011;60317;48.880;-0.862;2023-03-01T14:50:18;12.48;;;3.85;;
72358;SDS011;60317;48.880;-0.862;2023-03-01T14:52:48;12.57;;;3.03;;
72358;SDS011;60317;48.880;-0.862;2023-03-01T14:55:18;13.43;;;3.38;;
72358;SDS011;60317;48.880;-0.862;2023-03-01T14:57:48;15.90;;;3.72;;
72358;SDS011;60317;48.880;-0.862;2023-03-01T15:00:16;15.30;;;2.90;;
72358;SDS011;60317;48.880;-0.862;2023-03-01T15:02:46;20.60;;;3.40;;
72358;SDS011;60317;48.880;-0.862;2023-03-01T15:05:14;12.30;;;3.08;;